createdAt,value
2019-01-21T00:00:12.755Z,1018.42
2019-01-21T00:01:12.722Z,1018.35
2019-01-21T00:02:12.723Z,1018.39
2019-01-21T00:03:14.743Z,1018.47
2019-01-21T00:04:12.688Z,1018.46
2019-01-21T00:05:12.704Z,1018.50
2019-01-21T00:06:12.670Z,1018.60
2019-01-21T00:07:12.663Z,1018.59
2019-01-21T00:08:12.642Z,1018.55
2019-01-21T00:09:12.634Z,1018.48
2019-01-21T00:10:12.670Z,1018.34
2019-01-21T00:11:12.614Z,1018.55
2019-01-21T00:12:12.621Z,1018.33
2019-01-21T00:13:12.590Z,1018.38
2019-01-21T00:14:12.580Z,1018.36
2019-01-21T00:15:12.575Z,1018.37
2019-01-21T00:16:12.580Z,1018.38
2019-01-21T00:17:12.551Z,1018.49
2019-01-21T00:18:12.541Z,1018.42
2019-01-21T00:19:12.583Z,1018.48
2019-01-21T00:20:12.517Z,1018.45
2019-01-21T00:21:12.521Z,1018.51
2019-01-21T00:22:12.509Z,1018.37
2019-01-21T00:23:12.480Z,1018.37
2019-01-21T00:24:12.491Z,1018.33
2019-01-21T00:25:12.479Z,1018.32
2019-01-21T00:26:12.473Z,1018.27
2019-01-21T00:27:12.432Z,1018.27
2019-01-21T00:28:12.452Z,1018.26
2019-01-21T00:29:12.421Z,1018.33
2019-01-21T00:30:12.432Z,1018.32
2019-01-21T00:31:12.431Z,1018.42
2019-01-21T00:32:12.375Z,1018.35
2019-01-21T00:33:12.379Z,1018.34
2019-01-21T00:34:12.358Z,1018.35
2019-01-21T00:35:12.359Z,1018.29
2019-01-21T00:36:12.368Z,1018.32
2019-01-21T00:37:12.337Z,1018.36
2019-01-21T00:38:12.328Z,1018.40
2019-01-21T00:39:12.305Z,1018.43
2019-01-21T00:40:12.298Z,1018.40
2019-01-21T00:41:12.289Z,1018.42
2019-01-21T00:42:12.293Z,1018.34
2019-01-21T00:43:12.277Z,1018.39
2019-01-21T00:44:12.247Z,1018.38
2019-01-21T00:45:12.317Z,1018.47
2019-01-21T00:46:12.238Z,1018.33
2019-01-21T00:47:12.248Z,1018.33
2019-01-21T00:48:12.216Z,1018.27
2019-01-21T00:49:12.202Z,1018.31
2019-01-21T00:50:12.201Z,1018.31
2019-01-21T00:51:12.182Z,1018.32
2019-01-21T00:52:12.175Z,1018.27
2019-01-21T00:53:12.160Z,1018.33
2019-01-21T00:54:12.146Z,1018.29
2019-01-21T00:55:12.148Z,1018.29
2019-01-21T00:56:12.119Z,1018.32
2019-01-21T00:57:12.124Z,1018.35
2019-01-21T00:58:12.094Z,1018.39
2019-01-21T00:59:12.100Z,1018.43
2019-01-21T01:00:12.076Z,1018.39
2019-01-21T01:01:12.059Z,1018.48
2019-01-21T01:02:12.069Z,1018.39
2019-01-21T01:03:12.046Z,1018.50
2019-01-21T01:04:12.033Z,1018.52
2019-01-21T01:05:12.037Z,1018.52
2019-01-21T01:06:12.018Z,1018.49
2019-01-21T01:07:12.028Z,1018.48
2019-01-21T01:08:12.003Z,1018.46
2019-01-21T01:09:11.973Z,1018.50
2019-01-21T01:10:11.965Z,1018.42
2019-01-21T01:11:12.008Z,1018.51
2019-01-21T01:12:11.944Z,1018.48
2019-01-21T01:13:11.960Z,1018.49
2019-01-21T01:14:11.928Z,1018.48
2019-01-21T01:15:11.907Z,1018.51
2019-01-21T01:16:11.914Z,1018.48
2019-01-21T01:17:11.890Z,1018.51
2019-01-21T01:18:11.898Z,1018.47
2019-01-21T01:19:11.883Z,1018.51
2019-01-21T01:20:11.862Z,1018.51
2019-01-21T01:21:11.853Z,1018.48
2019-01-21T01:22:11.858Z,1018.53
2019-01-21T01:23:11.841Z,1018.54
2019-01-21T01:24:11.819Z,1018.63
2019-01-21T01:25:11.813Z,1018.61
2019-01-21T01:26:11.794Z,1018.49
2019-01-21T01:27:11.788Z,1018.52
2019-01-21T01:28:11.800Z,1018.47
2019-01-21T01:29:11.755Z,1018.53
2019-01-21T01:30:11.751Z,1018.49
2019-01-21T01:31:11.741Z,1018.52
2019-01-21T01:32:11.758Z,1018.45
2019-01-21T01:33:11.743Z,1018.47
2019-01-21T01:34:11.709Z,1018.55
2019-01-21T01:35:11.691Z,1018.61
2019-01-21T01:36:11.683Z,1018.61
2019-01-21T01:37:11.677Z,1018.50
2019-01-21T01:38:11.661Z,1018.46
2019-01-21T01:39:11.669Z,1018.41
2019-01-21T01:40:11.637Z,1018.41
2019-01-21T01:41:11.622Z,1018.35
2019-01-21T01:42:11.625Z,1018.40
2019-01-21T01:43:11.605Z,1018.43
2019-01-21T01:44:11.614Z,1018.41
2019-01-21T01:45:11.581Z,1018.45
2019-01-21T01:46:11.577Z,1018.44
2019-01-21T01:47:11.566Z,1018.42
2019-01-21T01:48:11.554Z,1018.42
2019-01-21T01:49:11.565Z,1018.43
2019-01-21T01:50:11.532Z,1018.40
2019-01-21T01:51:11.522Z,1018.53
2019-01-21T01:52:11.516Z,1018.50
2019-01-21T01:53:11.490Z,1018.51
2019-01-21T01:54:11.519Z,1018.48
2019-01-21T01:55:11.479Z,1018.48
2019-01-21T01:56:11.470Z,1018.52
2019-01-21T01:57:11.466Z,1018.53
2019-01-21T01:58:11.440Z,1018.50
2019-01-21T01:59:11.459Z,1018.51
2019-01-21T02:00:11.424Z,1018.46
2019-01-21T02:01:11.415Z,1018.45
2019-01-21T02:02:11.417Z,1018.48
2019-01-21T02:03:11.396Z,1018.49
2019-01-21T02:04:11.403Z,1018.67
2019-01-21T02:05:11.385Z,1018.56
2019-01-21T02:06:11.364Z,1018.64
2019-01-21T02:07:11.347Z,1018.67
2019-01-21T02:08:11.332Z,1018.64
2019-01-21T02:09:11.345Z,1018.59
2019-01-21T02:10:11.320Z,1018.62
2019-01-21T02:11:11.306Z,1018.60
2019-01-21T02:12:11.292Z,1018.51
2019-01-21T02:13:11.274Z,1018.52
2019-01-21T02:14:11.268Z,1018.54
2019-01-21T02:15:11.304Z,1018.53
2019-01-21T02:16:11.262Z,1018.54
2019-01-21T02:17:11.239Z,1018.43
2019-01-21T02:18:11.248Z,1018.44
2019-01-21T02:19:11.212Z,1018.48
2019-01-21T02:20:11.225Z,1018.50
2019-01-21T02:21:11.195Z,1018.40
2019-01-21T02:22:11.203Z,1018.48
2019-01-21T02:23:11.168Z,1018.58
2019-01-21T02:24:11.242Z,1018.46
2019-01-21T02:25:11.192Z,1018.50
2019-01-21T02:26:11.164Z,1018.55
2019-01-21T02:27:11.139Z,1018.56
2019-01-21T02:28:11.121Z,1018.61
2019-01-21T02:29:11.116Z,1018.56
2019-01-21T02:30:11.114Z,1018.41
2019-01-21T02:31:11.120Z,1018.44
2019-01-21T02:32:11.076Z,1018.40
2019-01-21T02:33:11.080Z,1018.45
2019-01-21T02:34:11.052Z,1018.54
2019-01-21T02:35:11.046Z,1018.43
2019-01-21T02:36:11.051Z,1018.42
2019-01-21T02:37:11.020Z,1018.38
2019-01-21T02:38:11.006Z,1018.33
2019-01-21T02:39:11.001Z,1018.38
2019-01-21T02:40:10.997Z,1018.43
2019-01-21T02:41:11.002Z,1018.40
2019-01-21T02:42:10.961Z,1018.41
2019-01-21T02:43:10.968Z,1018.42
2019-01-21T02:44:10.942Z,1018.38
2019-01-21T02:45:10.954Z,1018.40
2019-01-21T02:46:10.951Z,1018.25
2019-01-21T02:47:10.910Z,1018.29
2019-01-21T02:48:10.896Z,1018.29
2019-01-21T02:49:10.885Z,1018.21
2019-01-21T02:50:10.895Z,1018.22
2019-01-21T02:51:10.886Z,1018.19
2019-01-21T02:52:10.873Z,1018.22
2019-01-21T02:53:10.860Z,1018.22
2019-01-21T02:54:10.840Z,1018.33
2019-01-21T02:55:10.822Z,1018.32
2019-01-21T02:56:10.822Z,1018.40
2019-01-21T02:57:10.805Z,1018.39
2019-01-21T02:58:10.801Z,1018.41
2019-01-21T02:59:10.794Z,1018.22
2019-01-21T03:00:10.774Z,1018.24
2019-01-21T03:01:10.794Z,1018.28
2019-01-21T03:02:10.747Z,1018.20
2019-01-21T03:03:10.744Z,1018.24
2019-01-21T03:04:10.728Z,1018.26
2019-01-21T03:05:10.711Z,1018.27
2019-01-21T03:06:10.707Z,1018.29
2019-01-21T03:07:10.721Z,1018.31
2019-01-21T03:08:10.679Z,1018.28
2019-01-21T03:09:10.674Z,1018.24
2019-01-21T03:10:10.661Z,1018.23
2019-01-21T03:11:10.643Z,1018.27
2019-01-21T03:12:10.662Z,1018.19
2019-01-21T03:13:10.627Z,1018.30
2019-01-21T03:14:10.621Z,1018.32
2019-01-21T03:15:10.610Z,1018.29
2019-01-21T03:16:10.604Z,1018.32
2019-01-21T03:17:10.604Z,1018.42
2019-01-21T03:18:10.581Z,1018.41
2019-01-21T03:19:10.567Z,1018.28
2019-01-21T03:20:10.577Z,1018.24
2019-01-21T03:21:10.537Z,1018.31
2019-01-21T03:22:10.572Z,1018.26
2019-01-21T03:23:10.519Z,1018.37
2019-01-21T03:24:10.538Z,1018.32
2019-01-21T03:25:10.499Z,1018.32
2019-01-21T03:26:10.510Z,1018.48
2019-01-21T03:27:10.484Z,1018.43
2019-01-21T03:28:10.470Z,1018.47
2019-01-21T03:29:10.454Z,1018.35
2019-01-21T03:30:10.460Z,1018.48
2019-01-21T03:31:10.437Z,1018.41
2019-01-21T03:32:10.457Z,1018.34
2019-01-21T03:33:10.409Z,1018.39
2019-01-21T03:34:10.408Z,1018.50
2019-01-21T03:35:10.401Z,1018.53
2019-01-21T03:36:10.383Z,1018.46
2019-01-21T03:37:10.403Z,1018.42
2019-01-21T03:38:10.354Z,1018.48
2019-01-21T03:39:10.345Z,1018.36
2019-01-21T03:40:10.349Z,1018.32
2019-01-21T03:41:10.334Z,1018.35
2019-01-21T03:42:10.337Z,1018.38
2019-01-21T03:43:10.307Z,1018.28
2019-01-21T03:44:10.308Z,1018.27
2019-01-21T03:45:10.278Z,1018.28
2019-01-21T03:46:10.267Z,1018.30
2019-01-21T03:47:10.274Z,1018.30
2019-01-21T03:48:16.530Z,1018.30
2019-01-21T03:49:11.265Z,1018.23
2019-01-21T03:50:10.249Z,1018.16
2019-01-21T03:51:10.216Z,1018.19
2019-01-21T03:52:10.225Z,1018.12
2019-01-21T03:53:10.213Z,1018.14
2019-01-21T03:54:10.187Z,1018.09
2019-01-21T03:55:10.195Z,1018.10
2019-01-21T03:56:10.182Z,1018.13
2019-01-21T03:57:10.158Z,1018.10
2019-01-21T03:58:10.154Z,1018.13
2019-01-21T03:59:10.134Z,1018.15
2019-01-21T04:00:10.124Z,1018.07
2019-01-21T04:01:10.109Z,1018.12
2019-01-21T04:02:10.122Z,1018.05
2019-01-21T04:03:10.085Z,1018.14
2019-01-21T04:04:10.088Z,1018.11
2019-01-21T04:05:10.055Z,1018.09
2019-01-21T04:06:10.056Z,1018.09
2019-01-21T04:07:10.042Z,1018.14
2019-01-21T04:08:10.053Z,1018.15
2019-01-21T04:09:10.027Z,1018.11
2019-01-21T04:10:10.010Z,1018.13
2019-01-21T04:11:10.002Z,1018.10
2019-01-21T04:12:09.987Z,1018.13
2019-01-21T04:13:10.002Z,1018.03
2019-01-21T04:14:09.966Z,1018.02
2019-01-21T04:15:09.968Z,1018.01
2019-01-21T04:16:09.937Z,1018.08
2019-01-21T04:17:09.936Z,1018.13
2019-01-21T04:18:09.944Z,1018.11
2019-01-21T04:19:09.911Z,1018.09
2019-01-21T04:20:09.904Z,1018.06
2019-01-21T04:21:09.890Z,1018.01
2019-01-21T04:22:09.881Z,1018.06
2019-01-21T04:23:09.886Z,1018.00
2019-01-21T04:24:09.869Z,1017.99
2019-01-21T04:25:09.852Z,1017.99
2019-01-21T04:26:09.835Z,1017.99
2019-01-21T04:27:09.863Z,1017.90
2019-01-21T04:28:09.825Z,1018.07
2019-01-21T04:29:09.809Z,1017.89
2019-01-21T04:30:09.803Z,1018.12
2019-01-21T04:31:09.793Z,1018.12
2019-01-21T04:32:09.780Z,1018.07
2019-01-21T04:33:09.809Z,1018.02
2019-01-21T04:34:09.765Z,1017.95
2019-01-21T04:35:09.737Z,1017.96
2019-01-21T04:36:09.723Z,1018.01
2019-01-21T04:37:09.711Z,1017.99
2019-01-21T04:38:09.729Z,1017.95
2019-01-21T04:39:09.710Z,1017.94
2019-01-21T04:40:09.714Z,1018.00
2019-01-21T04:41:09.671Z,1017.92
2019-01-21T04:42:09.658Z,1017.98
2019-01-21T04:43:09.683Z,1017.96
2019-01-21T04:44:09.636Z,1017.91
2019-01-21T04:45:09.638Z,1017.88
2019-01-21T04:46:09.613Z,1017.88
2019-01-21T04:47:09.619Z,1017.94
2019-01-21T04:48:09.595Z,1017.90
2019-01-21T04:49:09.601Z,1017.80
2019-01-21T04:50:09.592Z,1017.85
2019-01-21T04:51:09.573Z,1017.83
2019-01-21T04:52:09.543Z,1017.97
2019-01-21T04:53:09.544Z,1017.93
2019-01-21T04:54:09.569Z,1017.79
2019-01-21T04:55:09.533Z,1017.94
2019-01-21T04:56:09.509Z,1017.97
2019-01-21T04:57:09.511Z,1017.94
2019-01-21T04:58:09.479Z,1017.94
2019-01-21T04:59:09.496Z,1017.95
2019-01-21T05:00:09.463Z,1017.91
2019-01-21T05:01:09.464Z,1017.94
2019-01-21T05:02:09.439Z,1017.90
2019-01-21T05:03:09.436Z,1017.95
2019-01-21T05:04:09.453Z,1017.91
2019-01-21T05:05:09.403Z,1017.97
2019-01-21T05:06:09.403Z,1017.98
2019-01-21T05:07:09.389Z,1017.91
2019-01-21T05:08:09.393Z,1017.89
2019-01-21T05:09:09.389Z,1017.90
2019-01-21T05:10:09.352Z,1018.00
2019-01-21T05:11:09.354Z,1017.83
2019-01-21T05:12:09.348Z,1017.96
2019-01-21T05:13:09.317Z,1017.95
2019-01-21T05:14:09.326Z,1018.00
2019-01-21T05:15:09.322Z,1017.97
2019-01-21T05:16:09.290Z,1018.00
2019-01-21T05:17:09.290Z,1018.03
2019-01-21T05:18:09.264Z,1018.03
2019-01-21T05:19:09.309Z,1017.94
2019-01-21T05:20:09.405Z,1018.00
2019-01-21T05:21:09.232Z,1017.93
2019-01-21T05:22:09.231Z,1017.87
2019-01-21T05:23:09.216Z,1017.84
2019-01-21T05:24:09.244Z,1017.79
2019-01-21T05:25:09.229Z,1017.86
2019-01-21T05:26:09.192Z,1017.88
2019-01-21T05:27:09.171Z,1017.84
2019-01-21T05:28:09.166Z,1017.89
2019-01-21T05:29:09.171Z,1017.84
2019-01-21T05:30:09.174Z,1017.88
2019-01-21T05:31:09.148Z,1017.93
2019-01-21T05:32:09.194Z,1017.82
2019-01-21T05:33:09.110Z,1017.83
2019-01-21T05:34:09.120Z,1017.80
2019-01-21T05:35:09.076Z,1017.83
2019-01-21T05:36:09.077Z,1017.83
2019-01-21T05:37:09.070Z,1017.81
2019-01-21T05:38:09.066Z,1017.79
2019-01-21T05:39:09.049Z,1017.81
2019-01-21T05:40:09.027Z,1017.85
2019-01-21T05:41:09.015Z,1017.84
2019-01-21T05:42:09.019Z,1017.80
2019-01-21T05:43:08.983Z,1017.88
2019-01-21T05:44:09.019Z,1017.87
2019-01-21T05:45:08.968Z,1017.86
2019-01-21T05:46:08.970Z,1017.77
2019-01-21T05:47:08.974Z,1017.79
2019-01-21T05:48:08.962Z,1017.78
2019-01-21T05:49:08.929Z,1017.78
2019-01-21T05:50:08.938Z,1017.82
2019-01-21T05:51:08.929Z,1017.82
2019-01-21T05:52:08.910Z,1017.81
2019-01-21T05:53:08.894Z,1017.84
2019-01-21T05:54:08.901Z,1017.83
2019-01-21T05:55:08.897Z,1017.86
2019-01-21T05:56:08.859Z,1017.79
2019-01-21T05:57:08.854Z,1017.80
2019-01-21T05:58:08.827Z,1017.90
2019-01-21T05:59:08.823Z,1017.81
2019-01-21T06:00:08.816Z,1017.78
2019-01-21T06:01:08.807Z,1017.79
2019-01-21T06:02:08.783Z,1017.75
2019-01-21T06:03:08.788Z,1017.67
2019-01-21T06:04:08.767Z,1017.83
2019-01-21T06:05:08.822Z,1017.78
2019-01-21T06:06:08.749Z,1017.81
2019-01-21T06:07:08.739Z,1017.79
2019-01-21T06:08:08.738Z,1017.79
2019-01-21T06:09:08.723Z,1017.80
2019-01-21T06:10:08.727Z,1017.83
2019-01-21T06:11:08.703Z,1018.00
2019-01-21T06:12:08.683Z,1018.02
2019-01-21T06:13:08.669Z,1018.02
2019-01-21T06:14:08.726Z,1018.00
2019-01-21T06:15:08.686Z,1017.97
2019-01-21T06:16:08.646Z,1017.99
2019-01-21T06:17:08.625Z,1017.99
2019-01-21T06:18:08.607Z,1018.01
2019-01-21T06:19:09.475Z,1017.90
2019-01-21T06:20:08.597Z,1017.91
2019-01-21T06:21:08.599Z,1017.86
2019-01-21T06:22:08.573Z,1017.89
2019-01-21T06:23:08.565Z,1017.88
2019-01-21T06:24:08.567Z,1017.85
2019-01-21T06:25:08.555Z,1017.98
2019-01-21T06:26:08.543Z,1017.98
2019-01-21T06:27:08.513Z,1017.87
2019-01-21T06:28:08.682Z,1018.07
2019-01-21T06:29:08.504Z,1018.00
2019-01-21T06:30:08.486Z,1017.98
2019-01-21T06:31:08.483Z,1018.06
2019-01-21T06:32:08.457Z,1017.89
2019-01-21T06:33:08.453Z,1017.88
2019-01-21T06:34:08.456Z,1017.90
2019-01-21T06:35:08.432Z,1017.88
2019-01-21T06:36:08.494Z,1017.92
2019-01-21T06:37:08.412Z,1018.01
2019-01-21T06:38:08.430Z,1017.90
2019-01-21T06:39:08.396Z,1017.95
2019-01-21T06:40:08.398Z,1017.95
2019-01-21T06:41:08.380Z,1018.03
2019-01-21T06:42:08.366Z,1018.08
2019-01-21T06:43:08.352Z,1018.04
2019-01-21T06:44:08.339Z,1018.06
2019-01-21T06:45:08.366Z,1018.05
2019-01-21T06:46:08.347Z,1018.08
2019-01-21T06:47:08.318Z,1017.97
2019-01-21T06:48:08.296Z,1017.95
2019-01-21T06:49:08.278Z,1017.94
2019-01-21T06:50:08.553Z,1018.03
2019-01-21T06:51:08.260Z,1018.15
2019-01-21T06:52:08.291Z,1018.03
2019-01-21T06:53:08.293Z,1018.17
2019-01-21T06:54:08.224Z,1018.11
2019-01-21T06:55:08.219Z,1018.02
2019-01-21T06:56:08.194Z,1018.06
2019-01-21T06:57:08.204Z,1018.20
2019-01-21T06:58:08.191Z,1018.09
2019-01-21T06:59:08.177Z,1018.06
2019-01-21T07:00:08.153Z,1018.03
2019-01-21T07:01:08.141Z,1018.04
2019-01-21T07:02:08.155Z,1018.11
2019-01-21T07:03:08.125Z,1018.05
2019-01-21T07:04:08.115Z,1018.04
2019-01-21T07:05:08.118Z,1018.09
2019-01-21T07:06:08.095Z,1018.12
2019-01-21T07:07:08.101Z,1018.08
2019-01-21T07:08:08.069Z,1018.01
2019-01-21T07:09:08.063Z,1018.04
2019-01-21T07:10:08.039Z,1018.02
2019-01-21T07:11:08.032Z,1018.07
2019-01-21T07:12:08.039Z,1018.09
2019-01-21T07:13:08.001Z,1018.01
2019-01-21T07:14:07.997Z,1018.00
2019-01-21T07:15:07.985Z,1018.00
2019-01-21T07:16:07.983Z,1018.00
2019-01-21T07:17:07.991Z,1017.98
2019-01-21T07:18:07.967Z,1017.97
2019-01-21T07:19:11.064Z,1018.16
2019-01-21T07:20:07.944Z,1018.10
2019-01-21T07:21:07.924Z,1018.15
2019-01-21T07:22:07.929Z,1018.18
2019-01-21T07:23:07.929Z,1018.11
2019-01-21T07:24:07.924Z,1018.06
2019-01-21T07:25:07.884Z,1018.11
2019-01-21T07:26:07.872Z,1018.10
2019-01-21T07:27:07.855Z,1017.92
2019-01-21T07:28:07.865Z,1018.14
2019-01-21T07:29:07.862Z,1018.12
2019-01-21T07:30:07.855Z,1018.13
2019-01-21T07:31:07.812Z,1018.21
2019-01-21T07:32:07.817Z,1018.11
2019-01-21T07:33:07.823Z,1018.19
2019-01-21T07:34:07.796Z,1018.23
2019-01-21T07:35:07.769Z,1018.22
2019-01-21T07:36:07.750Z,1018.24
2019-01-21T07:37:07.778Z,1018.13
2019-01-21T07:38:07.738Z,1018.20
2019-01-21T07:39:07.742Z,1018.19
2019-01-21T07:40:07.786Z,1018.17
2019-01-21T07:41:07.720Z,1018.19
2019-01-21T07:42:07.697Z,1018.02
2019-01-21T07:43:07.681Z,1018.04
2019-01-21T07:44:07.682Z,1018.04
2019-01-21T07:45:07.664Z,1018.04
2019-01-21T07:46:07.645Z,1018.05
2019-01-21T07:47:07.644Z,1018.02
2019-01-21T07:48:07.625Z,1018.08
2019-01-21T07:49:07.645Z,1018.02
2019-01-21T07:50:07.609Z,1018.07
2019-01-21T07:51:07.588Z,1018.07
2019-01-21T07:52:07.587Z,1018.08
2019-01-21T07:53:07.612Z,1018.12
2019-01-21T07:54:07.564Z,1018.19
2019-01-21T07:55:07.563Z,1018.24
2019-01-21T07:56:07.543Z,1018.14
2019-01-21T07:57:07.524Z,1018.13
2019-01-21T07:58:07.518Z,1018.08
2019-01-21T07:59:07.513Z,1018.17
2019-01-21T08:00:07.519Z,1018.13
2019-01-21T08:01:07.492Z,1018.17
2019-01-21T08:02:07.478Z,1018.13
2019-01-21T08:03:07.484Z,1018.14
2019-01-21T08:04:07.462Z,1018.15
2019-01-21T08:05:07.457Z,1018.11
2019-01-21T08:06:07.436Z,1018.08
2019-01-21T08:07:07.424Z,1018.13
2019-01-21T08:08:07.412Z,1018.14
2019-01-21T08:09:07.396Z,1017.98
2019-01-21T08:10:07.463Z,1018.09
2019-01-21T08:11:07.382Z,1018.06
2019-01-21T08:12:07.363Z,1018.04
2019-01-21T08:13:07.347Z,1018.04
2019-01-21T08:14:08.066Z,1018.06
2019-01-21T08:15:07.332Z,1017.98
2019-01-21T08:16:07.353Z,1018.00
2019-01-21T08:17:07.317Z,1017.99
2019-01-21T08:18:07.305Z,1018.08
2019-01-21T08:19:07.310Z,1018.00
2019-01-21T08:20:07.363Z,1018.04
2019-01-21T08:21:07.284Z,1017.99
2019-01-21T08:22:07.254Z,1018.01
2019-01-21T08:23:07.252Z,1018.01
2019-01-21T08:24:07.230Z,1017.98
2019-01-21T08:25:07.228Z,1018.01
2019-01-21T08:26:07.233Z,1017.99
2019-01-21T08:27:07.207Z,1018.02
2019-01-21T08:28:07.189Z,1018.07
2019-01-21T08:29:07.188Z,1018.11
2019-01-21T08:30:07.171Z,1018.15
2019-01-21T08:31:07.172Z,1018.16
2019-01-21T08:32:07.158Z,1018.21
2019-01-21T08:33:07.139Z,1018.02
2019-01-21T08:34:07.126Z,1018.10
2019-01-21T08:35:07.215Z,1018.08
2019-01-21T08:36:07.313Z,1018.06
2019-01-21T08:37:07.103Z,1018.08
2019-01-21T08:38:07.145Z,1018.09
2019-01-21T08:39:07.092Z,1018.17
2019-01-21T08:40:07.077Z,1018.19
2019-01-21T08:41:07.106Z,1018.15
2019-01-21T08:42:07.064Z,1018.01
2019-01-21T08:43:07.025Z,1018.03
2019-01-21T08:44:07.101Z,1017.96
2019-01-21T08:45:07.025Z,1017.96
2019-01-21T08:46:06.992Z,1018.00
2019-01-21T08:47:07.005Z,1018.01
2019-01-21T08:48:06.982Z,1017.98
2019-01-21T08:49:06.963Z,1018.02
2019-01-21T08:50:06.953Z,1018.17
2019-01-21T08:51:06.939Z,1018.16
2019-01-21T08:52:06.941Z,1018.19
2019-01-21T08:53:06.931Z,1018.15
2019-01-21T08:54:06.912Z,1017.98
2019-01-21T08:55:06.914Z,1017.98
2019-01-21T08:56:06.885Z,1018.01
2019-01-21T08:57:06.908Z,1018.03
2019-01-21T08:58:06.861Z,1018.05
2019-01-21T08:59:06.860Z,1018.02
2019-01-21T09:00:06.858Z,1018.04
2019-01-21T09:01:06.828Z,1018.12
2019-01-21T09:02:06.847Z,1018.07
2019-01-21T09:03:06.877Z,1018.12
2019-01-21T09:04:06.796Z,1018.14
2019-01-21T09:05:06.809Z,1018.06
2019-01-21T09:06:06.813Z,1018.07
2019-01-21T09:07:06.759Z,1018.19
2019-01-21T09:08:06.779Z,1018.19
2019-01-21T09:09:06.753Z,1018.16
2019-01-21T09:10:06.744Z,1018.11
2019-01-21T09:11:06.727Z,1018.07
2019-01-21T09:12:06.727Z,1018.06
2019-01-21T09:13:06.722Z,1018.19
2019-01-21T09:14:06.691Z,1018.10
2019-01-21T09:15:06.713Z,1018.08
2019-01-21T09:16:06.671Z,1018.13
2019-01-21T09:17:06.668Z,1018.17
2019-01-21T09:18:06.678Z,1018.19
2019-01-21T09:19:06.654Z,1018.19
2019-01-21T09:20:10.679Z,1018.21
2019-01-21T09:21:06.622Z,1018.27
2019-01-21T09:22:06.645Z,1018.32
2019-01-21T09:23:06.637Z,1018.24
2019-01-21T09:24:06.590Z,1018.21
2019-01-21T09:25:06.570Z,1018.16
2019-01-21T09:26:06.576Z,1018.16
2019-01-21T09:27:06.576Z,1018.18
2019-01-21T09:28:06.549Z,1018.17
2019-01-21T09:29:06.563Z,1018.18
2019-01-21T09:30:06.512Z,1018.26
2019-01-21T09:31:06.513Z,1018.23
2019-01-21T09:32:06.512Z,1018.43
2019-01-21T09:33:06.492Z,1018.29
2019-01-21T09:34:06.494Z,1018.22
2019-01-21T09:35:06.467Z,1018.24
2019-01-21T09:36:06.449Z,1018.17
2019-01-21T09:37:06.436Z,1018.12
2019-01-21T09:38:06.429Z,1018.15
2019-01-21T09:39:06.456Z,1018.18
2019-01-21T09:40:06.424Z,1018.22
2019-01-21T09:41:06.421Z,1018.16
2019-01-21T09:42:06.384Z,1018.19
2019-01-21T09:43:06.384Z,1018.32
2019-01-21T09:44:06.360Z,1018.28
2019-01-21T09:45:06.448Z,1018.23
2019-01-21T09:46:06.394Z,1018.17
2019-01-21T09:47:06.351Z,1018.10
2019-01-21T09:48:06.319Z,1018.14
2019-01-21T09:49:06.314Z,1018.21
2019-01-21T09:50:06.319Z,1018.17
2019-01-21T09:51:06.285Z,1018.12
2019-01-21T09:52:06.280Z,1018.22
2019-01-21T09:53:06.267Z,1018.22
2019-01-21T09:54:06.261Z,1018.21
2019-01-21T09:55:06.267Z,1018.20
2019-01-21T09:56:06.231Z,1018.27
2019-01-21T09:57:06.219Z,1018.30
2019-01-21T09:58:06.216Z,1018.25
2019-01-21T09:59:06.217Z,1018.35
2019-01-21T10:00:06.226Z,1018.31
2019-01-21T10:01:06.176Z,1018.34
2019-01-21T10:02:06.183Z,1018.29
2019-01-21T10:03:06.154Z,1018.29
2019-01-21T10:04:06.153Z,1018.27
2019-01-21T10:05:06.163Z,1018.17
2019-01-21T10:06:06.117Z,1018.20
2019-01-21T10:07:07.275Z,1018.23
2019-01-21T10:08:06.115Z,1018.03
2019-01-21T10:09:06.098Z,1018.02
2019-01-21T10:10:06.102Z,1017.95
2019-01-21T10:11:06.092Z,1018.03
2019-01-21T10:12:06.078Z,1018.00
2019-01-21T10:13:06.060Z,1018.05
2019-01-21T10:14:06.040Z,1018.01
2019-01-21T10:15:06.068Z,1017.96
2019-01-21T10:16:06.007Z,1018.08
2019-01-21T10:17:06.012Z,1018.03
2019-01-21T10:18:05.992Z,1018.05
2019-01-21T10:19:06.002Z,1018.05
2019-01-21T10:20:05.967Z,1018.05
2019-01-21T10:21:05.972Z,1018.04
2019-01-21T10:22:05.948Z,1018.06
2019-01-21T10:23:05.980Z,1018.06
2019-01-21T10:24:05.932Z,1017.98
2019-01-21T10:25:05.924Z,1018.02
2019-01-21T10:26:05.968Z,1017.95
2019-01-21T10:27:05.904Z,1017.92
2019-01-21T10:28:05.888Z,1017.93
2019-01-21T10:29:05.922Z,1017.88
2019-01-21T10:30:05.874Z,1017.89
2019-01-21T10:31:05.862Z,1017.82
2019-01-21T10:32:05.848Z,1017.79
2019-01-21T10:33:05.840Z,1017.74
2019-01-21T10:34:05.811Z,1017.66
2019-01-21T10:35:05.802Z,1017.66
2019-01-21T10:36:05.802Z,1017.62
2019-01-21T10:37:05.795Z,1017.57
2019-01-21T10:38:05.768Z,1017.65
2019-01-21T10:39:05.759Z,1017.64
2019-01-21T10:40:08.001Z,1017.64
2019-01-21T10:41:05.742Z,1017.62
2019-01-21T10:42:05.752Z,1017.62
2019-01-21T10:43:05.727Z,1017.55
2019-01-21T10:44:05.716Z,1017.57
2019-01-21T10:45:05.718Z,1017.57
2019-01-21T10:46:05.690Z,1017.47
2019-01-21T10:47:05.749Z,1017.42
2019-01-21T10:48:05.668Z,1017.47
2019-01-21T10:49:05.646Z,1017.41
2019-01-21T10:50:05.638Z,1017.38
2019-01-21T10:51:05.630Z,1017.36
2019-01-21T10:52:05.635Z,1017.36
2019-01-21T10:53:05.606Z,1017.34
2019-01-21T10:54:05.606Z,1017.30
2019-01-21T10:55:05.590Z,1017.29
2019-01-21T10:56:05.590Z,1017.21
2019-01-21T10:57:05.586Z,1017.25
2019-01-21T10:58:05.565Z,1017.24
2019-01-21T10:59:05.546Z,1017.34
2019-01-21T11:00:05.540Z,1017.36
2019-01-21T11:01:05.529Z,1017.22
2019-01-21T11:02:05.533Z,1017.19
2019-01-21T11:03:05.500Z,1017.25
2019-01-21T11:04:05.492Z,1017.21
2019-01-21T11:05:05.478Z,1017.37
2019-01-21T11:06:05.462Z,1017.35
2019-01-21T11:07:05.474Z,1017.29
2019-01-21T11:08:05.446Z,1017.20
2019-01-21T11:09:05.432Z,1017.19
2019-01-21T11:10:05.431Z,1017.15
2019-01-21T11:11:05.422Z,1017.05
2019-01-21T11:12:05.429Z,1017.09
2019-01-21T11:13:05.397Z,1017.08
2019-01-21T11:14:05.386Z,1017.13
2019-01-21T11:15:05.392Z,1017.09
2019-01-21T11:16:05.383Z,1017.14
2019-01-21T11:17:05.343Z,1017.02
2019-01-21T11:18:05.350Z,1017.02
2019-01-21T11:19:05.325Z,1017.03
2019-01-21T11:20:05.331Z,1017.00
2019-01-21T11:21:05.294Z,1016.94
2019-01-21T11:22:05.300Z,1016.97
2019-01-21T11:23:06.305Z,1016.94
2019-01-21T11:24:05.264Z,1016.91
2019-01-21T11:25:05.261Z,1016.92
2019-01-21T11:26:05.261Z,1016.94
2019-01-21T11:27:05.232Z,1016.91
2019-01-21T11:28:05.254Z,1016.91
2019-01-21T11:29:05.218Z,1016.96
2019-01-21T11:30:05.203Z,1016.97
2019-01-21T11:31:05.196Z,1016.90
2019-01-21T11:32:05.184Z,1016.90
2019-01-21T11:33:05.200Z,1016.90
2019-01-21T11:34:05.161Z,1016.93
2019-01-21T11:35:05.146Z,1016.85
2019-01-21T11:36:05.148Z,1016.89
2019-01-21T11:37:05.124Z,1016.94
2019-01-21T11:38:05.137Z,1016.91
2019-01-21T11:39:05.134Z,1016.95
2019-01-21T11:40:05.095Z,1016.95
2019-01-21T11:41:05.077Z,1016.95
2019-01-21T11:42:05.073Z,1016.97
2019-01-21T11:43:05.086Z,1016.95
2019-01-21T11:44:05.055Z,1016.99
2019-01-21T11:45:05.045Z,1017.02
2019-01-21T11:46:05.024Z,1016.98
2019-01-21T11:47:05.036Z,1016.97
2019-01-21T11:48:05.016Z,1016.90
2019-01-21T11:49:05.005Z,1016.90
2019-01-21T11:50:10.495Z,1016.85
2019-01-21T11:51:05.975Z,1016.84
2019-01-21T11:52:04.959Z,1016.81
2019-01-21T11:53:04.976Z,1016.81
2019-01-21T11:54:04.946Z,1016.79
2019-01-21T11:55:04.940Z,1016.74
2019-01-21T11:56:04.918Z,1016.80
2019-01-21T11:57:04.906Z,1016.80
2019-01-21T11:58:04.898Z,1016.75
2019-01-21T11:59:04.921Z,1016.70
2019-01-21T12:00:04.885Z,1016.72
2019-01-21T12:01:04.889Z,1016.70
2019-01-21T12:02:04.854Z,1016.72
2019-01-21T12:03:04.843Z,1016.68
2019-01-21T12:04:04.861Z,1016.63
2019-01-21T12:05:04.825Z,1016.72